Apex, NC (27523)

6:15 PM EDT on March 28, 2015 (GMT -0400)
Surrey Meadows | | Change Station
CLOSE
Current Station
Personal Weather Station
Location: APEX, NC
Elevation: 476 ft
Nearby Weather Stations

Elev 476 ft 35.73 °N, 78.83 °W | Updated 12 minutes ago

Clear
Clear
44.2 °F
Feels Like 44 °F
N
1.1
Wind Variable Wind from ENE

Today
High -- | Low -- °F
--% Chance of Precip.
Yesterday
High -- | Low -- °F
Precip. -- in
7:07 AM 7:33 PM
Waxing Gibbous, 66% visible
Pressure 30.07 in
Visibility 10.0 miles
Clouds Few 6000 ft
Windchill 44 °F
Dew Point 17 °F
Humidity 33%
Rainfall 0.00 in
Snow Depth Not available.
UV 1 out of 12
Pollen 9.40 out of 12
Air Quality Not available.
Flu Activity Not available.
METAR KRDU 282151Z VRB06G18KT 10SM FEW060 08/M12 A3007 RMK AO2 SLP183 T00781117

More Conditions Fewer Conditions

Pressure 30.07 in
Visibility 10.0 miles
Clouds Few 6000 ft
Windchill 44 °F
Dew Point 17 °F
Humidity 33%
Rainfall 0.00 in
Snow Depth Not available.
UV 1 out of 12
Pollen 9.40 out of 12
Air Quality Not available.
Flu Activity Not available.
METAR KRDU 282151Z VRB06G18KT 10SM FEW060 08/M12 A3007 RMK AO2 SLP183 T00781117

More Conditions Fewer Conditions

10-Day Weather Forecast

Almanac

Astronomy

Mar. 28, 2015 Rise Set
Actual Time
Civil Twilight
Nautical Twilight
Astronomical Twilight
Moon
Length of Visible Light
Length of Day
Tomorrow will be .
, % of the Moon is Illuminated

Today's Extremes

State Highs State Lows

Community

WunderPhotos

Upload Photos

1,809,099 photos uploaded!

WunderBlogs® & News

Nearby

Air Quality

  Air Quality AQ Index Pollutant
Not available.

Snow Depth

Station Depth Elevation

Earthquake Activity

City Distance Mag. Time & Date
Minimum magnitude displayed is 2.5.

Coastal Water Temperatures

Place Temperature

Stations

Nearby Weather Stations

Station Location Temp. Windchill Dew Point Humidity Wind Precip. Elev Updated Type